createdAt,value
2018-09-27T00:02:18.357Z,80.20
2018-09-27T00:04:46.612Z,79.74
2018-09-27T00:07:14.830Z,79.41
2018-09-27T00:09:43.076Z,79.63
2018-09-27T00:21:08.906Z,79.65
2018-09-27T00:23:56.885Z,80.10
2018-09-27T01:18:15.648Z,81.11
2018-09-27T02:17:54.645Z,82.49
2018-09-27T02:26:08.106Z,83.10
2018-09-27T02:28:36.345Z,83.27
2018-09-27T02:31:04.584Z,83.88
2018-09-27T02:33:32.945Z,83.52
2018-09-27T02:36:01.318Z,83.98
2018-09-27T02:38:29.607Z,83.57
2018-09-27T02:40:57.841Z,84.19
2018-09-27T02:43:26.070Z,84.38
2018-09-27T02:45:54.318Z,84.40
2018-09-27T02:48:22.575Z,84.72
2018-09-27T02:50:50.858Z,84.16
2018-09-27T02:53:19.091Z,84.35
2018-09-27T02:55:47.347Z,84.25
2018-09-27T02:58:15.593Z,84.43
2018-09-27T03:00:43.848Z,85.07
2018-09-27T03:03:12.093Z,85.32
2018-09-27T03:05:40.354Z,84.74
2018-09-27T03:08:08.596Z,85.33
2018-09-27T03:10:36.861Z,85.17
2018-09-27T03:13:05.133Z,85.21
2018-09-27T03:27:22.723Z,85.42
2018-09-27T03:29:50.980Z,85.95
2018-09-27T03:32:19.237Z,85.60
2018-09-27T03:34:47.486Z,85.38
2018-09-27T03:37:15.976Z,85.84
2018-09-27T03:39:44.249Z,85.77
2018-09-27T03:42:12.482Z,85.47
2018-09-27T03:44:40.737Z,85.93
2018-09-27T03:47:09.049Z,85.89
2018-09-27T03:49:37.304Z,86.18
2018-09-27T03:52:05.586Z,85.81
2018-09-27T03:54:33.826Z,86.27
2018-09-27T03:57:02.098Z,85.66
2018-09-27T03:59:30.361Z,85.87
2018-09-27T04:01:58.633Z,85.75
2018-09-27T04:04:26.878Z,86.01
2018-09-27T04:06:55.110Z,85.99
2018-09-27T04:09:23.383Z,85.76
2018-09-27T04:11:51.629Z,86.23
2018-09-27T05:29:41.422Z,85.70
2018-09-27T05:32:09.689Z,85.41
2018-09-27T05:34:37.947Z,85.64
2018-09-27T05:37:06.225Z,86.10
2018-09-27T05:39:34.540Z,85.49
2018-09-27T05:42:02.776Z,86.25
2018-09-27T05:44:31.074Z,86.07
2018-09-27T05:47:05.885Z,85.38
2018-09-27T05:49:34.183Z,85.51
2018-09-27T05:52:02.433Z,86.00
2018-09-27T05:54:30.713Z,85.71
2018-09-27T05:56:58.981Z,85.28
2018-09-27T05:59:27.270Z,85.87
2018-09-27T06:01:55.547Z,85.13
2018-09-27T06:04:23.805Z,85.45
2018-09-27T06:06:52.061Z,85.48
2018-09-27T06:09:20.321Z,85.67
2018-09-27T06:11:48.586Z,85.42
2018-09-27T06:14:16.817Z,85.09
2018-09-27T06:16:45.089Z,84.94
2018-09-27T06:24:03.248Z,85.05
2018-09-27T06:26:31.497Z,84.44
2018-09-27T06:28:59.766Z,84.63
2018-09-27T06:31:28.000Z,84.61
2018-09-27T06:33:56.265Z,83.96
2018-09-27T06:36:24.490Z,84.04
2018-09-27T06:38:52.721Z,84.03
2018-09-27T06:41:21.050Z,83.77
2018-09-27T06:43:49.257Z,83.68
2018-09-27T06:46:17.496Z,84.00
2018-09-27T06:48:45.756Z,83.30
2018-09-27T06:51:13.998Z,83.49
2018-09-27T06:53:42.376Z,83.27
2018-09-27T06:56:10.670Z,83.24
2018-09-27T06:58:38.879Z,82.96
2018-09-27T07:01:07.149Z,82.70
2018-09-27T07:03:35.397Z,82.51
2018-09-27T07:06:03.638Z,81.75
2018-09-27T07:08:31.922Z,82.49
2018-09-27T07:11:00.161Z,82.22
2018-09-27T07:13:28.433Z,81.32
2018-09-27T07:15:56.682Z,81.17
2018-09-27T07:18:24.925Z,80.94
2018-09-27T07:26:48.564Z,80.19
2018-09-27T07:29:16.765Z,80.20
2018-09-27T07:31:45.045Z,79.86
2018-09-27T07:34:13.317Z,79.98
2018-09-27T07:36:41.595Z,79.63
2018-09-27T07:39:11.200Z,79.35
2018-09-27T07:41:40.246Z,79.25
2018-09-27T07:44:08.730Z,79.22
2018-09-27T07:46:37.076Z,78.95
2018-09-27T07:49:05.328Z,79.02
2018-09-27T07:51:33.582Z,78.82
2018-09-27T07:54:01.869Z,79.18
2018-09-27T07:56:30.175Z,79.05
2018-09-27T07:58:58.390Z,78.99
2018-09-27T08:01:26.617Z,78.38
2018-09-27T08:03:54.861Z,78.48
2018-09-27T08:06:23.169Z,78.78
2018-09-27T08:08:51.414Z,78.16
2018-09-27T08:11:19.712Z,78.07
2018-09-27T08:13:47.919Z,78.68
2018-09-27T08:16:16.165Z,78.40
2018-09-27T08:19:02.752Z,78.48
2018-09-27T08:24:24.498Z,77.51
2018-09-27T08:26:52.848Z,77.48
2018-09-27T08:29:21.078Z,77.43
2018-09-27T08:31:49.345Z,76.94
2018-09-27T08:34:17.605Z,77.38
2018-09-27T08:36:45.848Z,77.05
2018-09-27T08:39:14.093Z,76.65
2018-09-27T08:41:42.350Z,76.38
2018-09-27T08:44:11.626Z,75.79
2018-09-27T08:46:40.417Z,75.90
2018-09-27T08:49:08.697Z,75.60
2018-09-27T08:51:37.025Z,74.75
2018-09-27T08:54:05.225Z,74.43
2018-09-27T08:56:33.505Z,74.20
2018-09-27T08:59:01.782Z,73.79
2018-09-27T09:01:30.053Z,74.06
2018-09-27T09:03:58.341Z,73.94
2018-09-27T09:06:26.627Z,72.92
2018-09-27T09:08:54.873Z,73.30
2018-09-27T09:11:23.139Z,73.19
2018-09-27T09:14:08.357Z,72.76
2018-09-27T09:16:39.796Z,71.96
2018-09-27T09:19:08.026Z,70.96
2018-09-27T10:15:54.741Z,56.28
2018-09-27T10:18:22.986Z,54.98
2018-09-27T10:23:43.513Z,53.59
2018-09-27T12:12:44.170Z,51.26
2018-09-27T12:27:01.643Z,50.85
2018-09-27T12:29:29.869Z,49.44
2018-09-27T12:31:58.114Z,51.11
2018-09-27T12:34:26.613Z,50.14
2018-09-27T12:36:54.849Z,50.62
2018-09-27T12:39:23.087Z,50.53
2018-09-27T12:41:51.481Z,52.36
2018-09-27T12:44:19.649Z,51.01
2018-09-27T12:46:47.953Z,51.16
2018-09-27T12:49:16.127Z,50.82
2018-09-27T12:51:44.482Z,51.96
2018-09-27T12:54:12.660Z,51.07
2018-09-27T12:56:40.909Z,50.80
2018-09-27T12:59:09.222Z,52.01
2018-09-27T13:01:37.573Z,51.22
2018-09-27T13:04:05.852Z,52.29
2018-09-27T13:06:34.108Z,52.71
2018-09-27T13:09:02.503Z,53.12
2018-09-27T13:11:30.656Z,53.42
2018-09-27T13:13:58.967Z,51.06
2018-09-27T13:16:27.229Z,50.97
2018-09-27T13:25:02.716Z,48.03
2018-09-27T13:27:30.906Z,49.61
2018-09-27T13:29:59.180Z,51.53
2018-09-27T13:32:27.419Z,52.44
2018-09-27T13:34:55.646Z,52.80
2018-09-27T13:37:23.891Z,52.94
2018-09-27T13:39:52.195Z,52.83
2018-09-27T13:42:20.425Z,53.11
2018-09-27T13:44:48.655Z,53.21
2018-09-27T13:47:16.910Z,53.88
2018-09-27T13:49:45.145Z,54.27
2018-09-27T13:52:13.395Z,54.77
2018-09-27T13:54:41.624Z,55.77
2018-09-27T13:57:09.929Z,56.18
2018-09-27T13:59:38.153Z,56.39
2018-09-27T14:02:06.658Z,56.13
2018-09-27T14:04:35.274Z,56.20
2018-09-27T14:07:03.593Z,57.30
2018-09-27T14:09:31.858Z,56.50
2018-09-27T14:12:00.129Z,56.93
2018-09-27T14:23:27.308Z,57.82
2018-09-27T14:25:55.581Z,57.35
2018-09-27T14:28:23.833Z,57.70
2018-09-27T14:30:52.147Z,57.85
2018-09-27T14:33:20.332Z,58.93
2018-09-27T14:35:48.612Z,58.70
2018-09-27T14:38:16.833Z,58.93
2018-09-27T14:40:45.152Z,58.94
2018-09-27T14:43:13.384Z,59.00
2018-09-27T14:45:41.623Z,59.78
2018-09-27T14:48:09.841Z,59.71
2018-09-27T14:50:38.101Z,60.01
2018-09-27T14:53:06.367Z,59.86
2018-09-27T14:55:34.652Z,60.07
2018-09-27T14:58:02.920Z,60.22
2018-09-27T15:00:31.200Z,61.22
2018-09-27T15:02:59.448Z,61.25
2018-09-27T15:05:27.675Z,61.40
2018-09-27T15:07:55.913Z,61.27
2018-09-27T15:10:24.222Z,61.30
2018-09-27T15:13:08.382Z,61.10
2018-09-27T15:15:36.616Z,61.49
2018-09-27T15:18:04.889Z,62.18
2018-09-27T15:20:51.822Z,62.37
2018-09-27T15:26:12.912Z,62.46
2018-09-27T15:28:41.144Z,62.58
2018-09-27T15:31:09.425Z,61.97
2018-09-27T15:33:37.677Z,62.83
2018-09-27T15:36:05.942Z,62.61
2018-09-27T15:38:34.190Z,62.79
2018-09-27T15:41:02.452Z,62.40
2018-09-27T15:43:30.726Z,63.40
2018-09-27T15:45:59.001Z,63.02
2018-09-27T15:48:27.316Z,63.27
2018-09-27T15:50:55.553Z,63.57
2018-09-27T15:53:23.813Z,63.13
2018-09-27T15:55:52.078Z,63.01
2018-09-27T15:58:20.362Z,63.07
2018-09-27T16:00:48.805Z,63.05
2018-09-27T16:03:17.053Z,63.10
2018-09-27T16:05:45.345Z,63.95
2018-09-27T16:08:13.601Z,63.33
2018-09-27T16:10:41.961Z,63.99
2018-09-27T16:30:37.525Z,64.43
2018-09-27T16:33:05.779Z,64.23
2018-09-27T16:35:34.062Z,64.59
2018-09-27T16:38:02.322Z,64.67
2018-09-27T16:40:30.622Z,65.35
2018-09-27T16:42:58.938Z,65.08
2018-09-27T16:45:27.185Z,65.21
2018-09-27T16:47:55.442Z,64.63
2018-09-27T16:50:23.665Z,64.95
2018-09-27T16:52:52.009Z,65.47
2018-09-27T16:55:20.266Z,64.97
2018-09-27T16:57:48.543Z,64.95
2018-09-27T17:00:16.802Z,65.76
2018-09-27T17:02:45.102Z,65.52
2018-09-27T17:05:13.381Z,65.41
2018-09-27T17:07:41.630Z,65.12
2018-09-27T17:10:09.885Z,65.70
2018-09-27T17:12:38.172Z,65.76
2018-09-27T17:15:06.454Z,65.96
2018-09-27T17:17:34.729Z,65.69
2018-09-27T17:20:03.013Z,65.92
2018-09-27T17:22:31.260Z,66.23
2018-09-27T17:27:55.794Z,66.43
2018-09-27T17:30:24.047Z,66.21
2018-09-27T17:32:52.308Z,65.79
2018-09-27T17:35:20.561Z,66.11
2018-09-27T17:37:48.981Z,66.71
2018-09-27T17:40:17.288Z,66.63
2018-09-27T17:42:45.516Z,66.84
2018-09-27T17:45:13.865Z,66.97
2018-09-27T17:47:42.145Z,66.90
2018-09-27T17:50:11.614Z,66.75
2018-09-27T17:52:39.894Z,66.76
2018-09-27T17:55:08.209Z,66.78
2018-09-27T17:57:36.481Z,67.52
2018-09-27T18:00:04.798Z,67.62
2018-09-27T18:02:33.053Z,67.82
2018-09-27T18:05:01.321Z,67.08
2018-09-27T18:07:29.635Z,67.51
2018-09-27T18:09:57.866Z,66.96
2018-09-27T18:12:26.121Z,67.22
2018-09-27T18:14:54.398Z,66.79
2018-09-27T18:17:22.681Z,67.25
2018-09-27T18:20:04.453Z,67.49
2018-09-27T18:22:37.694Z,67.07
2018-09-27T19:13:37.602Z,66.36
2018-09-27T19:16:05.917Z,66.35
2018-09-27T19:18:34.201Z,66.55
2018-09-27T19:21:02.433Z,66.14
2018-09-27T19:23:30.653Z,66.57
2018-09-27T19:25:58.986Z,66.48
2018-09-27T19:28:27.263Z,66.03
2018-09-27T19:30:55.501Z,66.53
2018-09-27T19:33:23.757Z,66.27
2018-09-27T19:35:51.996Z,66.46
2018-09-27T19:38:20.213Z,65.82
2018-09-27T19:40:48.541Z,66.35
2018-09-27T19:43:16.836Z,65.72
2018-09-27T19:45:45.081Z,66.21
2018-09-27T19:48:13.385Z,65.61
2018-09-27T19:50:41.624Z,66.19
2018-09-27T19:53:09.872Z,66.20
2018-09-27T19:55:38.857Z,66.62
2018-09-27T19:58:07.161Z,66.57
2018-09-27T20:00:35.457Z,66.44
2018-09-27T20:03:03.717Z,66.75
2018-09-27T20:05:32.108Z,66.89
2018-09-27T20:08:00.357Z,66.30
2018-09-27T20:10:28.663Z,66.56
2018-09-27T20:12:56.869Z,66.12
2018-09-27T20:15:25.200Z,66.83
2018-09-27T20:17:53.469Z,66.79
2018-09-27T20:20:21.790Z,67.06
2018-09-27T20:23:02.826Z,66.66
2018-09-27T21:19:57.021Z,65.85
2018-09-27T21:22:25.324Z,65.21
2018-09-27T22:13:47.218Z,69.83
2018-09-27T22:16:15.568Z,70.32
2018-09-27T22:18:43.900Z,70.47
2018-09-27T23:12:48.176Z,79.14
2018-09-27T23:15:16.437Z,79.74
2018-09-27T23:17:44.833Z,79.16
2018-09-27T23:23:06.141Z,79.05
2018-09-27T23:31:20.517Z,78.69
2018-09-27T23:33:48.790Z,78.05
2018-09-27T23:36:17.047Z,78.11
2018-09-27T23:38:45.308Z,78.06
2018-09-27T23:41:13.561Z,78.68
2018-09-27T23:43:41.805Z,78.07
2018-09-27T23:46:10.710Z,78.24
2018-09-27T23:48:39.096Z,78.68
2018-09-27T23:51:07.341Z,78.72
2018-09-27T23:53:35.724Z,78.81
2018-09-27T23:56:05.465Z,78.54
2018-09-27T23:58:33.733Z,79.33
